Time;durP1;ratioP1;P1;durP2;ratioP2;P2;SDS_P1;SDS_P2;PMS_P1;PMS_P2;Temp;Humidity;BMP_temperature;BMP_pressure;BME280_temperature;BME280_humidity;BME280_pressure;Samples;Min_cycle;Max_cycle;Signal;HPM_P1;HPM_P2
2021/12/26 00:00:16;;;;;;;;;;;;;;;2.62;nan;99676.28;5093964;28;19920;-81
2021/12/26 00:02:41;;;;;;;;;;;;;;;2.61;nan;99670.22;5107112;28;19920;-81
2021/12/26 00:05:07;;;;;;;;;;;;;;;2.58;nan;99664.44;5084690;28;19916;-81
2021/12/26 00:07:33;;;;;;;;;;;;;;;2.36;nan;99650.47;5107676;28;19980;-81
2021/12/26 00:09:58;;;;;;;;;;;;;;;2.57;nan;99657.53;5094353;28;19927;-82
2021/12/26 00:12:23;;;;;;;;;;;;;;;2.57;nan;99653.16;5106998;28;19920;-81
2021/12/26 00:14:48;;;;;;;;;;;;;;;2.52;nan;99650.91;5117216;28;20369;-82
2021/12/26 00:17:14;;;;;;;;;;;;;;;2.59;nan;99653.84;5112063;28;20337;-81
2021/12/26 00:19:39;;;;;;;;;;;;;;;2.54;nan;99649.00;5104234;28;20057;-81
2021/12/26 00:22:05;;;;;;;;;;;;;;;2.49;nan;99640.72;5114126;28;19951;-81
2021/12/26 00:24:30;;;;;;;;;;;;;;;2.54;nan;99649.00;5084103;28;20012;-82
2021/12/26 00:26:55;;;;;;;;;;;;;;;2.54;nan;99643.78;5114522;28;19981;-81
2021/12/26 00:29:20;;;;;;;;;;;;;;;2.45;nan;99641.91;5111617;28;19970;-82
2021/12/26 00:31:46;;;;;;;;;;;;;;;2.36;nan;99647.88;5105122;28;19947;-81
2021/12/26 00:34:11;;;;;;;;;;;;;;;2.31;nan;99652.59;5104581;28;20018;-81
2021/12/26 00:36:36;;;;;;;;;;;;;;;2.26;nan;99644.31;5105723;28;19924;-81
2021/12/26 00:39:01;;;;;;;;;;;;;;;2.42;nan;99649.97;5109643;28;19924;-81
2021/12/26 00:41:27;;;;;;;;;;;;;;;2.36;nan;99640.03;5101444;28;20011;-82
2021/12/26 00:43:54;;;;;;;;;;;;;;;2.33;nan;99646.31;5090708;28;19924;-82
2021/12/26 00:46:19;;;;;;;;;;;;;;;2.31;nan;99637.78;5101810;28;19965;-82
2021/12/26 00:48:45;;;;;;;;;;;;;;;2.18;nan;99637.09;5104113;28;20392;-81
2021/12/26 00:51:10;;;;;;;;;;;;;;;2.26;nan;99646.91;5104048;28;19916;-82
2021/12/26 00:53:35;;;;;;;;;;;;;;;2.30;nan;99651.78;5104836;28;19941;-82
2021/12/26 00:56:00;;;;;;;;;;;;;;;2.31;nan;99643.00;5119307;28;19924;-81
2021/12/26 00:58:35;;;;;;;;;;;;;;;2.31;nan;99644.75;5089007;28;20119;-81
2021/12/26 01:01:00;;;;;;;;;;;;;;;2.33;nan;99646.31;5106231;28;20007;-81
2021/12/26 01:03:26;;;;;;;;;;;;;;;2.46;nan;99638.34;5099657;28;19920;-82
2021/12/26 01:05:52;;;;;;;;;;;;;;;2.45;nan;99641.06;5113486;28;19920;-81
2021/12/26 01:08:20;;;;;;;;;;;;;;;2.45;nan;99641.06;5093173;28;19977;-82
2021/12/26 01:10:49;;;;;;;;;;;;;;;2.38;nan;99632.91;5099749;28;19951;-81
2021/12/26 01:13:18;;;;;;;;;;;;;;;2.42;nan;99639.53;5086069;28;19958;-82
2021/12/26 01:15:44;;;;;;;;;;;;;;;2.43;nan;99643.81;5096738;28;20016;-81
2021/12/26 01:18:10;;;;;;;;;;;;;;;2.41;nan;99644.88;5080989;28;19922;-82
2021/12/26 01:20:58;;;;;;;;;;;;;;;2.39;nan;99650.22;5081311;28;19955;-82
2021/12/26 01:23:25;;;;;;;;;;;;;;;2.44;nan;99649.88;5081941;28;19931;-81
2021/12/26 01:25:51;;;;;;;;;;;;;;;2.45;nan;99648.91;5095593;28;20316;-82
2021/12/26 01:28:18;;;;;;;;;;;;;;;2.49;nan;99650.31;5110554;28;19916;-82
2021/12/26 01:30:44;;;;;;;;;;;;;;;2.48;nan;99653.88;5105547;28;19927;-81
2021/12/26 01:33:12;;;;;;;;;;;;;;;2.53;nan;99660.41;5092702;28;19941;-82
2021/12/26 01:35:39;;;;;;;;;;;;;;;2.56;nan;99661.94;5102376;28;19928;-82
2021/12/26 01:38:06;;;;;;;;;;;;;;;2.60;nan;99657.28;5090900;28;19919;-82
2021/12/26 01:40:36;;;;;;;;;;;;;;;2.59;nan;99655.66;5090597;28;19950;-81
2021/12/26 01:43:02;;;;;;;;;;;;;;;2.54;nan;99656.00;5082469;28;19942;-81
2021/12/26 01:45:28;;;;;;;;;;;;;;;2.57;nan;99653.16;5100569;28;20339;-81
2021/12/26 01:48:04;;;;;;;;;;;;;;;2.57;nan;99650.53;5110584;28;19930;-81
2021/12/26 01:50:30;;;;;;;;;;;;;;;2.58;nan;99652.22;5089523;28;19920;-81
2021/12/26 01:52:56;;;;;;;;;;;;;;;2.61;nan;99653.75;5115274;28;19927;-81
2021/12/26 01:55:37;;;;;;;;;;;;;;;2.59;nan;99650.41;5086089;28;19924;-81
2021/12/26 01:58:10;;;;;;;;;;;;;;;2.58;nan;99665.25;5109168;28;19941;-81
2021/12/26 02:00:37;;;;;;;;;;;;;;;2.55;nan;99661.13;5105847;28;19927;-82
2021/12/26 02:03:03;;;;;;;;;;;;;;;2.55;nan;99665.47;5081076;28;19959;-81
2021/12/26 02:05:29;;;;;;;;;;;;;;;2.53;nan;99655.19;5102345;28;19928;-81
2021/12/26 02:07:55;;;;;;;;;;;;;;;2.54;nan;99663.84;5107409;28;19920;-82
2021/12/26 02:10:21;;;;;;;;;;;;;;;2.60;nan;99659.91;5106470;28;19959;-82
2021/12/26 02:12:46;;;;;;;;;;;;;;;2.52;nan;99660.50;5102352;28;19919;-82
2021/12/26 02:15:12;;;;;;;;;;;;;;;2.50;nan;99660.66;5117664;28;19987;-82
2021/12/26 02:17:38;;;;;;;;;;;;;;;2.46;nan;99656.63;5113987;28;19930;-81
2021/12/26 02:20:20;;;;;;;;;;;;;;;2.49;nan;99653.75;5116817;28;20407;-81
2021/12/26 02:22:52;;;;;;;;;;;;;;;2.51;nan;99654.47;5104971;28;19927;-81
2021/12/26 02:27:49;;;;;;;;;;;;;;;2.43;nan;99649.03;5115194;28;19920;-81
2021/12/26 02:30:19;;;;;;;;;;;;;;;2.50;nan;99645.00;5084872;28;20402;-81
2021/12/26 02:32:47;;;;;;;;;;;;;;;2.47;nan;99645.22;5121877;28;19924;-81
2021/12/26 02:35:13;;;;;;;;;;;;;;;2.43;nan;99646.44;5100267;28;19919;-82
2021/12/26 02:37:42;;;;;;;;;;;;;;;2.48;nan;99646.03;5109352;28;20415;-81
2021/12/26 02:40:08;;;;;;;;;;;;;;;2.50;nan;99647.59;5104249;28;20296;-80
2021/12/26 02:42:34;;;;;;;;;;;;;;;2.52;nan;99639.63;5106074;28;19998;-80
2021/12/26 02:45:00;;;;;;;;;;;;;;;2.48;nan;99633.00;5116835;28;19920;-80
2021/12/26 02:47:33;;;;;;;;;;;;;;;2.44;nan;99642.88;5085439;28;19927;-80
2021/12/26 02:50:02;;;;;;;;;;;;;;;2.49;nan;99642.50;5102728;28;20399;-80
2021/12/26 02:52:27;;;;;;;;;;;;;;;2.48;nan;99639.06;5099467;28;20288;-80
2021/12/26 02:54:53;;;;;;;;;;;;;;;2.53;nan;99636.91;5093677;28;19920;-79
2021/12/26 02:57:19;;;;;;;;;;;;;;;2.50;nan;99641.53;5097827;28;19920;-80
2021/12/26 02:59:48;;;;;;;;;;;;;;;2.41;nan;99637.91;5101656;28;20010;-80
2021/12/26 03:02:14;;;;;;;;;;;;;;;2.50;nan;99646.75;5115505;28;20041;-80
2021/12/26 03:04:40;;;;;;;;;;;;;;;2.51;nan;99644.03;5090563;28;19969;-80
2021/12/26 03:07:05;;;;;;;;;;;;;;;2.39;nan;99644.19;5090104;28;19920;-80
2021/12/26 03:09:40;;;;;;;;;;;;;;;2.46;nan;99645.38;5112237;28;19920;-80
2021/12/26 03:12:07;;;;;;;;;;;;;;;2.39;nan;99641.56;5082936;28;19920;-80
2021/12/26 03:14:33;;;;;;;;;;;;;;;2.32;nan;99643.84;5098916;28;19926;-82
2021/12/26 03:17:00;;;;;;;;;;;;;;;2.40;nan;99638.00;5113788;28;19932;-80
2021/12/26 03:19:27;;;;;;;;;;;;;;;2.43;nan;99646.44;5094768;28;19919;-80
2021/12/26 03:21:53;;;;;;;;;;;;;;;2.48;nan;99638.22;5095358;28;19920;-80
2021/12/26 03:24:19;;;;;;;;;;;;;;;2.45;nan;99648.91;5116652;28;19987;-80
2021/12/26 03:26:45;;;;;;;;;;;;;;;2.46;nan;99640.97;5091743;28;20045;-80
2021/12/26 03:29:13;;;;;;;;;;;;;;;2.48;nan;99643.44;5094387;28;20169;-80
2021/12/26 03:31:41;;;;;;;;;;;;;;;2.48;nan;99640.81;5107443;28;19924;-80
2021/12/26 03:34:07;;;;;;;;;;;;;;;2.43;nan;99642.97;5094808;28;20507;-80
2021/12/26 03:36:32;;;;;;;;;;;;;;;2.36;nan;99642.66;5108555;28;19966;-80
2021/12/26 03:38:58;;;;;;;;;;;;;;;2.36;nan;99637.44;5098193;28;19969;-82
2021/12/26 03:41:24;;;;;;;;;;;;;;;2.42;nan;99641.31;5102612;28;19920;-80
2021/12/26 03:43:52;;;;;;;;;;;;;;;2.42;nan;99644.75;5099510;28;19916;-80
2021/12/26 03:46:18;;;;;;;;;;;;;;;2.44;nan;99648.09;5116816;28;19940;-82
2021/12/26 03:48:44;;;;;;;;;;;;;;;2.47;nan;99640.00;5100713;28;20396;-80
2021/12/26 03:51:10;;;;;;;;;;;;;;;2.46;nan;99627.91;5093290;28;19920;-80
2021/12/26 03:53:35;;;;;;;;;;;;;;;2.38;nan;99640.72;5085959;28;19926;-82
2021/12/26 03:56:01;;;;;;;;;;;;;;;2.44;nan;99640.25;5088921;28;19920;-80
2021/12/26 03:58:27;;;;;;;;;;;;;;;2.39;nan;99641.56;5081723;28;19937;-80
2021/12/26 04:00:53;;;;;;;;;;;;;;;2.48;nan;99638.22;5087789;28;20315;-80
2021/12/26 04:03:20;;;;;;;;;;;;;;;2.50;nan;99637.16;5088267;28;19923;-80
2021/12/26 04:05:46;;;;;;;;;;;;;;;2.50;nan;99638.94;5089126;28;19985;-80
2021/12/26 04:08:11;;;;;;;;;;;;;;;2.47;nan;99637.41;5086206;28;20388;-80
2021/12/26 04:10:36;;;;;;;;;;;;;;;2.52;nan;99640.47;5101043;28;19932;-80
2021/12/26 04:13:02;;;;;;;;;;;;;;;2.59;nan;99632.16;5081235;28;20008;-80
2021/12/26 04:15:27;;;;;;;;;;;;;;;2.54;nan;99638.56;5084751;28;19928;-80
2021/12/26 04:17:57;;;;;;;;;;;;;;;2.62;nan;99632.75;5102018;28;19967;-80
2021/12/26 04:20:22;;;;;;;;;;;;;;;2.55;nan;99628.94;5102787;28;19919;-81
2021/12/26 04:22:48;;;;;;;;;;;;;;;2.63;nan;99636.19;5104898;28;19923;-80
2021/12/26 04:25:14;;;;;;;;;;;;;;;2.62;nan;99637.13;5116576;28;19919;-81
2021/12/26 04:27:39;;;;;;;;;;;;;;;2.52;nan;99637.03;5105750;28;20384;-80
2021/12/26 04:30:06;;;;;;;;;;;;;;;2.54;nan;99638.56;5108137;28;20311;-80
2021/12/26 04:32:32;;;;;;;;;;;;;;;2.68;nan;99639.25;5099582;28;19998;-80
2021/12/26 04:34:57;;;;;;;;;;;;;;;2.63;nan;99637.00;5113582;28;19947;-80
2021/12/26 04:37:22;;;;;;;;;;;;;;;2.52;nan;99635.25;5112501;28;19949;-80
2021/12/26 04:39:47;;;;;;;;;;;;;;;2.28;nan;99630.19;5116674;28;19968;-80
2021/12/26 04:42:12;;;;;;;;;;;;;;;2.23;nan;99636.72;5087908;28;19990;-80
2021/12/26 04:44:38;;;;;;;;;;;;;;;2.28;nan;99635.41;5102766;28;19959;-80
2021/12/26 04:47:03;;;;;;;;;;;;;;;2.42;nan;99643.94;5098232;28;20063;-80
2021/12/26 04:49:29;;;;;;;;;;;;;;;2.40;nan;99640.63;5099452;28;20338;-81
2021/12/26 04:51:54;;;;;;;;;;;;;;;2.44;nan;99637.66;5093165;28;19923;-80
2021/12/26 04:54:19;;;;;;;;;;;;;;;2.45;nan;99641.06;5115957;28;19926;-81
2021/12/26 04:56:44;;;;;;;;;;;;;;;2.46;nan;99637.53;5115815;28;20460;-80
2021/12/26 04:59:10;;;;;;;;;;;;;;;2.47;nan;99631.34;5115773;28;20379;-80
2021/12/26 05:01:35;;;;;;;;;;;;;;;2.41;nan;99632.69;5102373;28;20451;-80
2021/12/26 05:04:01;;;;;;;;;;;;;;;2.42;nan;99630.88;5083875;28;20015;-82
2021/12/26 05:06:26;;;;;;;;;;;;;;;2.45;nan;99634.06;5102835;28;19924;-81
2021/12/26 05:08:51;;;;;;;;;;;;;;;2.36;nan;99636.59;5114732;28;19959;-81
2021/12/26 05:11:17;;;;;;;;;;;;;;;2.42;nan;99631.72;5112462;28;20010;-80
2021/12/26 05:13:42;;;;;;;;;;;;;;;2.33;nan;99627.22;5101253;28;20302;-80
2021/12/26 05:16:07;;;;;;;;;;;;;;;2.34;nan;99642.75;5113340;28;19924;-80
2021/12/26 05:18:32;;;;;;;;;;;;;;;2.44;nan;99639.44;5112246;28;19926;-80
2021/12/26 05:20:57;;;;;;;;;;;;;;;2.37;nan;99640.88;5106495;28;19923;-81
2021/12/26 05:23:23;;;;;;;;;;;;;;;2.47;nan;99636.56;5099482;28;19920;-80
2021/12/26 05:25:48;;;;;;;;;;;;;;;2.49;nan;99640.72;5119462;28;20015;-80
2021/12/26 05:28:14;;;;;;;;;;;;;;;2.53;nan;99641.31;5115116;28;19927;-80
2021/12/26 05:30:39;;;;;;;;;;;;;;;2.39;nan;99638.97;5112694;28;19920;-80
2021/12/26 05:33:04;;;;;;;;;;;;;;;2.44;nan;99636.81;5098272;28;19931;-80
2021/12/26 05:35:31;;;;;;;;;;;;;;;2.35;nan;99633.16;5082401;28;19935;-80
2021/12/26 05:37:57;;;;;;;;;;;;;;;2.31;nan;99627.38;5079032;28;19916;-80
2021/12/26 05:40:23;;;;;;;;;;;;;;;2.41;nan;99634.44;5101189;28;19988;-80
2021/12/26 05:42:48;;;;;;;;;;;;;;;2.46;nan;99634.94;5100880;28;19959;-81
2021/12/26 05:45:13;;;;;;;;;;;;;;;2.50;nan;99626.72;5090396;28;19951;-80
2021/12/26 05:47:38;;;;;;;;;;;;;;;2.39;nan;99628.53;5111262;28;20353;-80
2021/12/26 05:50:05;;;;;;;;;;;;;;;2.41;nan;99627.47;5104751;28;20014;-80
2021/12/26 05:52:30;;;;;;;;;;;;;;;2.41;nan;99624.84;5082539;28;19968;-80
2021/12/26 05:54:56;;;;;;;;;;;;;;;2.45;nan;99631.47;5090436;28;19977;-80
2021/12/26 05:57:21;;;;;;;;;;;;;;;2.36;nan;99631.38;5114633;28;20656;-80
2021/12/26 05:59:47;;;;;;;;;;;;;;;2.41;nan;99631.81;5117872;28;19923;-80
2021/12/26 06:02:12;;;;;;;;;;;;;;;2.48;nan;99633.00;5080889;28;19962;-80
2021/12/26 06:04:39;;;;;;;;;;;;;;;2.50;nan;99633.72;5097371;28;19920;-80
2021/12/26 06:07:04;;;;;;;;;;;;;;;2.51;nan;99638.00;5110046;28;19920;-81
2021/12/26 06:09:30;;;;;;;;;;;;;;;2.52;nan;99635.25;5085024;28;19928;-80
2021/12/26 06:11:55;;;;;;;;;;;;;;;2.52;nan;99632.63;5089391;28;20004;-81
2021/12/26 06:14:20;;;;;;;;;;;;;;;2.57;nan;99632.25;5095983;28;20359;-81
2021/12/26 06:16:45;;;;;;;;;;;;;;;2.57;nan;99632.25;5113959;28;19923;-81
2021/12/26 06:19:11;;;;;;;;;;;;;;;2.59;nan;99632.16;5115026;28;19920;-80
2021/12/26 06:21:36;;;;;;;;;;;;;;;2.57;nan;99634.06;5111512;28;19927;-80
2021/12/26 06:24:01;;;;;;;;;;;;;;;2.58;nan;99633.13;5116631;28;20300;-80
2021/12/26 06:26:28;;;;;;;;;;;;;;;2.58;nan;99636.56;5100363;28;20183;-81
2021/12/26 06:28:53;;;;;;;;;;;;;;;2.59;nan;99632.16;5098568;28;20352;-81
2021/12/26 06:31:19;;;;;;;;;;;;;;;2.58;nan;99638.34;5109281;28;20014;-81
2021/12/26 06:33:44;;;;;;;;;;;;;;;2.61;nan;99635.47;5105691;28;19923;-81
2021/12/26 06:36:10;;;;;;;;;;;;;;;2.59;nan;99642.59;5104523;28;19924;-81
2021/12/26 06:38:36;;;;;;;;;;;;;;;2.58;nan;99638.34;5098277;28;19923;-80
2021/12/26 06:41:02;;;;;;;;;;;;;;;2.61;nan;99638.91;5112006;28;19943;-80
2021/12/26 06:43:27;;;;;;;;;;;;;;;2.60;nan;99637.25;5115955;28;19928;-80
2021/12/26 06:45:53;;;;;;;;;;;;;;;2.46;nan;99633.13;5114420;28;19920;-80
2021/12/26 06:48:19;;;;;;;;;;;;;;;2.46;nan;99630.53;5084125;28;19959;-80
2021/12/26 06:50:45;;;;;;;;;;;;;;;2.50;nan;99625.88;5105395;28;19919;-80
2021/12/26 06:53:11;;;;;;;;;;;;;;;2.32;nan;99623.78;5114828;28;20512;-80
2021/12/26 06:55:36;;;;;;;;;;;;;;;2.31;nan;99621.28;5110705;28;19931;-80
2021/12/26 06:58:02;;;;;;;;;;;;;;;2.31;nan;99624.75;5115630;28;20415;-80
2021/12/26 07:00:27;;;;;;;;;;;;;;;2.20;nan;99629.16;5100195;28;19920;-80
2021/12/26 07:02:52;;;;;;;;;;;;;;;2.30;nan;99633.50;5079753;28;20362;-80
2021/12/26 07:05:17;;;;;;;;;;;;;;;2.31;nan;99629.97;5078623;28;19969;-80
2021/12/26 07:07:42;;;;;;;;;;;;;;;2.34;nan;99628.91;5101466;28;19927;-80
2021/12/26 07:10:09;;;;;;;;;;;;;;;2.32;nan;99628.19;5100302;28;20429;-80
2021/12/26 07:12:34;;;;;;;;;;;;;;;2.42;nan;99636.09;5087036;28;20018;-80
2021/12/26 07:14:59;;;;;;;;;;;;;;;2.39;nan;99634.56;5085151;28;19969;-80
2021/12/26 07:17:24;;;;;;;;;;;;;;;2.30;nan;99630.91;5103569;28;19919;-80
2021/12/26 07:19:51;;;;;;;;;;;;;;;2.04;nan;99635.53;5115498;28;19972;-80
2021/12/26 07:22:16;;;;;;;;;;;;;;;2.17;nan;99634.59;5113377;28;19976;-80
2021/12/26 07:24:43;;;;;;;;;;;;;;;2.04;nan;99635.53;5110626;28;19947;-81
2021/12/26 07:27:12;;;;;;;;;;;;;;;2.08;nan;99634.38;5116184;28;19931;-80
2021/12/26 07:29:37;;;;;;;;;;;;;;;2.09;nan;99645.63;5112644;28;20014;-80
2021/12/26 07:32:03;;;;;;;;;;;;;;;2.10;nan;99642.91;5103814;28;19920;-80
2021/12/26 07:34:28;;;;;;;;;;;;;;;1.92;nan;99642.53;5116695;28;19927;-80
2021/12/26 07:36:53;;;;;;;;;;;;;;;1.87;nan;99641.25;5121689;28;19963;-81
2021/12/26 07:39:19;;;;;;;;;;;;;;;1.83;nan;99639.81;5114219;28;19963;-80
2021/12/26 07:41:44;;;;;;;;;;;;;;;1.78;nan;99636.72;5101104;28;20057;-80
2021/12/26 07:44:09;;;;;;;;;;;;;;;1.87;nan;99642.06;5112584;28;19927;-81
2021/12/26 07:46:34;;;;;;;;;;;;;;;1.91;nan;99638.28;5119062;28;19927;-80
2021/12/26 07:48:59;;;;;;;;;;;;;;;1.90;nan;99639.22;5091762;28;19939;-80
2021/12/26 07:51:25;;;;;;;;;;;;;;;1.89;nan;99645.38;5115741;28;19920;-80
2021/12/26 07:53:51;;;;;;;;;;;;;;;2.01;nan;99651.44;5103405;28;19946;-80
2021/12/26 07:56:17;;;;;;;;;;;;;;;2.15;nan;99658.19;5108542;28;20338;-81
2021/12/26 07:58:42;;;;;;;;;;;;;;;2.06;nan;99654.50;5102440;28;19920;-82
2021/12/26 08:01:08;;;;;;;;;;;;;;;2.14;nan;99651.31;5090158;28;19966;-80
2021/12/26 08:03:34;;;;;;;;;;;;;;;2.19;nan;99658.78;5118717;28;19920;-81
2021/12/26 08:05:59;;;;;;;;;;;;;;;2.21;nan;99656.88;5101317;28;19920;-81
2021/12/26 08:08:25;;;;;;;;;;;;;;;2.29;nan;99665.78;5102738;28;19920;-81
2021/12/26 08:10:50;;;;;;;;;;;;;;;2.26;nan;99663.38;5114892;28;19920;-81
2021/12/26 08:13:16;;;;;;;;;;;;;;;2.30;nan;99667.44;5114802;28;19928;-81
2021/12/26 08:15:41;;;;;;;;;;;;;;;2.30;nan;99667.44;5113108;28;20269;-82
2021/12/26 08:18:07;;;;;;;;;;;;;;;2.36;nan;99665.28;5105550;28;19931;-81
2021/12/26 08:20:32;;;;;;;;;;;;;;;2.37;nan;99664.34;5109565;28;20080;-81
2021/12/26 08:22:57;;;;;;;;;;;;;;;2.34;nan;99666.25;5105465;28;19998;-81
2021/12/26 08:25:23;;;;;;;;;;;;;;;2.28;nan;99669.31;5099365;28;19951;-81
2021/12/26 08:27:48;;;;;;;;;;;;;;;2.31;nan;99670.84;5103943;28;19942;-82
2021/12/26 08:30:14;;;;;;;;;;;;;;;2.39;nan;99665.88;5110495;28;19920;-81
2021/12/26 08:32:41;;;;;;;;;;;;;;;2.45;nan;99662.78;5111685;28;20404;-81
2021/12/26 08:35:07;;;;;;;;;;;;;;;2.42;nan;99667.41;5109072;28;20334;-82
2021/12/26 08:37:33;;;;;;;;;;;;;;;2.42;nan;99667.41;5118427;28;19924;-81
2021/12/26 08:39:58;;;;;;;;;;;;;;;2.43;nan;99671.66;5107705;28;19995;-81
2021/12/26 08:42:23;;;;;;;;;;;;;;;2.46;nan;99668.84;5109796;28;20416;-81
2021/12/26 08:44:49;;;;;;;;;;;;;;;2.54;nan;99669.06;5102161;28;19920;-81
2021/12/26 08:47:15;;;;;;;;;;;;;;;2.62;nan;99666.69;5110738;28;19920;-81
2021/12/26 08:49:40;;;;;;;;;;;;;;;2.65;nan;99671.66;5101464;28;20293;-81
2021/12/26 08:52:06;;;;;;;;;;;;;;;2.68;nan;99674.00;5089440;28;19920;-81
2021/12/26 08:54:33;;;;;;;;;;;;;;;2.72;nan;99672.00;5104928;28;19959;-81
2021/12/26 08:56:59;;;;;;;;;;;;;;;2.73;nan;99679.69;5116129;28;19938;-81
2021/12/26 08:59:29;;;;;;;;;;;;;;;2.60;nan;99676.41;5116244;28;20304;-81
2021/12/26 09:01:55;;;;;;;;;;;;;;;2.53;nan;99673.44;5105105;28;19916;-81
2021/12/26 09:04:20;;;;;;;;;;;;;;;2.60;nan;99679.03;5087927;28;19931;-81
2021/12/26 09:06:45;;;;;;;;;;;;;;;2.70;nan;99681.72;5093242;28;19920;-81
2021/12/26 09:09:11;;;;;;;;;;;;;;;2.75;nan;99687.41;5094230;28;19921;-82
2021/12/26 09:11:36;;;;;;;;;;;;;;;2.79;nan;99685.38;5107716;28;19938;-82
2021/12/26 09:14:01;;;;;;;;;;;;;;;2.81;nan;99686.06;5103670;28;19920;-81
2021/12/26 09:16:33;;;;;;;;;;;;;;;2.85;nan;99687.50;5106528;28;19932;-82
2021/12/26 09:18:58;;;;;;;;;;;;;;;2.79;nan;99694.06;5100173;28;20100;-81
2021/12/26 09:21:23;;;;;;;;;;;;;;;2.81;nan;99693.91;5101695;28;19920;-81
2021/12/26 09:23:49;;;;;;;;;;;;;;;2.73;nan;99691.91;5116636;28;19920;-81
2021/12/26 09:26:14;;;;;;;;;;;;;;;2.71;nan;99696.44;5082749;28;19920;-81
2021/12/26 09:28:39;;;;;;;;;;;;;;;2.59;nan;99690.41;5112797;28;19957;-82
2021/12/26 09:31:05;;;;;;;;;;;;;;;2.64;nan;99701.28;5111115;28;19926;-81
2021/12/26 09:33:30;;;;;;;;;;;;;;;2.58;nan;99707.03;5092518;28;20353;-82
2021/12/26 09:35:55;;;;;;;;;;;;;;;2.49;nan;99703.34;5120123;28;19924;-82
2021/12/26 09:38:21;;;;;;;;;;;;;;;2.55;nan;99702.03;5095854;28;19930;-82
2021/12/26 09:40:46;;;;;;;;;;;;;;;2.55;nan;99694.19;5116987;28;19928;-82
2021/12/26 09:43:12;;;;;;;;;;;;;;;2.62;nan;99691.94;5106463;28;19926;-81
2021/12/26 09:45:37;;;;;;;;;;;;;;;2.66;nan;99694.19;5111522;28;20279;-81
2021/12/26 09:48:02;;;;;;;;;;;;;;;2.70;nan;99686.94;5099513;28;19916;-82
2021/12/26 09:50:28;;;;;;;;;;;;;;;2.65;nan;99702.97;5089345;28;19924;-81
2021/12/26 09:52:53;;;;;;;;;;;;;;;2.66;nan;99702.00;5120510;28;19922;-82
2021/12/26 09:55:20;;;;;;;;;;;;;;;2.75;nan;99697.84;5109106;28;19924;-81
2021/12/26 09:57:45;;;;;;;;;;;;;;;2.82;nan;99692.97;5096632;28;19919;-82
2021/12/26 10:00:19;;;;;;;;;;;;;;;2.76;nan;99691.66;5112871;28;19935;-81
2021/12/26 10:02:44;;;;;;;;;;;;;;;2.87;nan;99691.66;5105207;28;21584;-83
2021/12/26 10:05:10;;;;;;;;;;;;;;;2.80;nan;99687.88;5107613;28;19920;-83
2021/12/26 10:07:35;;;;;;;;;;;;;;;2.87;nan;99683.81;5109248;28;20070;-83
2021/12/26 10:10:04;;;;;;;;;;;;;;;2.94;nan;99682.38;5100214;28;20349;-83
2021/12/26 10:12:37;;;;;;;;;;;;;;;2.88;nan;99679.41;5110495;28;19959;-83
2021/12/26 10:15:03;;;;;;;;;;;;;;;2.86;nan;99681.31;5106897;28;19979;-83
2021/12/26 10:17:28;;;;;;;;;;;;;;;2.78;nan;99675.88;5105876;28;19959;-83
2021/12/26 10:20:10;;;;;;;;;;;;;;;2.75;nan;99679.56;5085413;28;19923;-83
2021/12/26 10:22:36;;;;;;;;;;;;;;;2.78;nan;99671.50;5115103;28;19920;-83
2021/12/26 10:25:12;;;;;;;;;;;;;;;2.74;nan;99664.84;5116758;28;19923;-83
2021/12/26 10:27:38;;;;;;;;;;;;;;;2.80;nan;99666.16;5099594;28;19970;-83
2021/12/26 10:30:05;;;;;;;;;;;;;;;2.83;nan;99660.69;5098374;28;19916;-83
2021/12/26 10:32:32;;;;;;;;;;;;;;;2.82;nan;99656.44;5090711;28;19946;-83
2021/12/26 10:34:59;;;;;;;;;;;;;;;2.86;nan;99653.44;5106423;28;20224;-83
2021/12/26 10:37:33;;;;;;;;;;;;;;;2.82;nan;99646.81;5088642;28;19923;-83
2021/12/26 10:40:00;;;;;;;;;;;;;;;2.88;nan;99643.69;5118890;28;19924;-83
2021/12/26 10:42:29;;;;;;;;;;;;;;;2.96;nan;99643.09;5116007;28;19937;-83
2021/12/26 10:44:56;;;;;;;;;;;;;;;2.97;nan;99639.50;5105563;28;19981;-83
2021/12/26 10:47:32;;;;;;;;;;;;;;;3.09;nan;99635.88;5112312;28;19923;-83
2021/12/26 10:49:59;;;;;;;;;;;;;;;3.18;nan;99636.91;5086885;28;20098;-83
2021/12/26 10:52:26;;;;;;;;;;;;;;;3.20;nan;99640.25;5103751;28;19983;-83
2021/12/26 10:54:56;;;;;;;;;;;;;;;3.18;nan;99637.75;5111761;28;19927;-83
2021/12/26 10:57:23;;;;;;;;;;;;;;;3.19;nan;99639.41;5114612;28;19923;-83
2021/12/26 10:59:58;;;;;;;;;;;;;;;3.22;nan;99638.34;5118762;28;19919;-83
2021/12/26 11:02:25;;;;;;;;;;;;;;;3.29;nan;99641.25;5102441;28;19955;-83
2021/12/26 11:04:59;;;;;;;;;;;;;;;3.29;nan;99630.78;5090502;28;19927;-83
2021/12/26 11:07:24;;;;;;;;;;;;;;;3.28;nan;99631.75;5084048;28;19962;-83
2021/12/26 11:10:22;;;;;;;;;;;;;;;3.39;nan;99635.16;5109841;28;19920;-83
2021/12/26 11:12:48;;;;;;;;;;;;;;;3.34;nan;99628.66;5031117;28;19927;-83
2021/12/26 11:15:15;;;;;;;;;;;;;;;3.30;nan;99635.09;5106528;28;19927;-83
2021/12/26 11:17:44;;;;;;;;;;;;;;;3.39;nan;99635.16;5088977;28;20010;-84
2021/12/26 11:20:16;;;;;;;;;;;;;;;3.42;nan;99625.41;5102529;28;19920;-83
2021/12/26 11:22:42;;;;;;;;;;;;;;;3.44;nan;99620.88;5084583;28;19920;-83
2021/12/26 11:25:07;;;;;;;;;;;;;;;3.43;nan;99620.03;5116590;28;19924;-83
2021/12/26 11:27:33;;;;;;;;;;;;;;;3.40;nan;99625.50;5110524;28;19926;-83
2021/12/26 11:29:58;;;;;;;;;;;;;;;3.43;nan;99627.88;5088831;28;19954;-83
2021/12/26 11:32:26;;;;;;;;;;;;;;;3.51;nan;99625.44;5107797;28;19938;-83
2021/12/26 11:34:52;;;;;;;;;;;;;;;3.53;nan;99626.16;5104207;28;19927;-83
2021/12/26 11:37:18;;;;;;;;;;;;;;;3.60;nan;99624.69;5102319;28;19924;-83
2021/12/26 11:39:44;;;;;;;;;;;;;;;3.66;nan;99627.72;5101876;28;19920;-83
2021/12/26 11:42:30;;;;;;;;;;;;;;;3.70;nan;99624.72;5111709;28;19923;-83
2021/12/26 11:45:19;;;;;;;;;;;;;;;3.74;nan;99620.06;5089916;28;19919;-83
2021/12/26 11:48:09;;;;;;;;;;;;;;;3.70;nan;99626.53;5108535;28;19972;-83
2021/12/26 11:50:47;;;;;;;;;;;;;;;3.76;nan;99616.34;5088940;22;20354;-86
2021/12/26 11:53:27;;;;;;;;;;;;;;;3.80;nan;99617.75;5039716;28;20006;-86
2021/12/26 11:56:07;;;;;;;;;;;;;;;3.74;nan;99620.91;5032361;28;19929;-86
2021/12/26 11:58:44;;;;;;;;;;;;;;;3.73;nan;99618.41;5045582;28;20020;-86
2021/12/26 12:01:14;;;;;;;;;;;;;;;3.72;nan;99614.97;5046012;28;20064;-86
2021/12/26 12:03:39;;;;;;;;;;;;;;;3.73;nan;99614.00;5051890;28;19917;-86
2021/12/26 12:06:04;;;;;;;;;;;;;;;3.76;nan;99605.06;5038896;28;20374;-86
2021/12/26 12:08:31;;;;;;;;;;;;;;;3.85;nan;99600.84;5051932;28;19948;-86
2021/12/26 12:11:07;;;;;;;;;;;;;;;3.91;nan;99601.16;5049230;28;19925;-86
2021/12/26 12:13:39;;;;;;;;;;;;;;;3.98;nan;99596.19;5043454;28;19971;-87
2021/12/26 12:16:08;;;;;;;;;;;;;;;3.93;nan;99601.88;5045470;28;19945;-86
2021/12/26 12:18:34;;;;;;;;;;;;;;;3.92;nan;99601.97;5045294;28;20011;-86
2021/12/26 12:21:08;;;;;;;;;;;;;;;3.94;nan;99602.69;5051603;28;19975;-86
2021/12/26 12:23:34;;;;;;;;;;;;;;;3.88;nan;99605.81;5046379;28;19921;-86
2021/12/26 12:26:00;;;;;;;;;;;;;;;3.78;nan;99611.00;5050692;28;20310;-86
2021/12/26 12:28:30;;;;;;;;;;;;;;;3.73;nan;99603.53;5046530;28;19921;-86
2021/12/26 12:31:11;;;;;;;;;;;;;;;3.82;nan;99601.94;5053959;28;20035;-86
2021/12/26 12:33:37;;;;;;;;;;;;;;;3.81;nan;99600.28;5051226;28;19959;-86
2021/12/26 12:36:09;;;;;;;;;;;;;;;3.87;nan;99604.16;5044991;28;19963;-86
2021/12/26 12:38:39;;;;;;;;;;;;;;;3.93;nan;99598.38;5055736;28;19909;-86
2021/12/26 12:41:08;;;;;;;;;;;;;;;3.94;nan;99594.84;5064546;28;19982;-85
2021/12/26 12:43:42;;;;;;;;;;;;;;;3.93;nan;99594.00;5070128;28;19928;-86
2021/12/26 12:46:09;;;;;;;;;;;;;;;3.96;nan;99593.75;5047780;28;19928;-86
2021/12/26 12:48:40;;;;;;;;;;;;;;;3.98;nan;99590.97;5043036;28;20298;-86
2021/12/26 12:51:14;;;;;;;;;;;;;;;3.97;nan;99589.34;5051512;28;21046;-87
2021/12/26 12:53:50;;;;;;;;;;;;;;;4.01;nan;99590.72;5051050;28;19932;-87
2021/12/26 12:56:31;;;;;;;;;;;;;;;4.04;nan;99582.59;5040988;28;20088;-87
2021/12/26 12:59:16;;;;;;;;;;;;;;;3.98;nan;99573.50;5048769;28;19930;-87
2021/12/26 13:01:42;;;;;;;;;;;;;;;3.95;nan;99573.75;5049129;28;20286;-87
2021/12/26 13:04:08;;;;;;;;;;;;;;;3.99;nan;99569.94;5053141;28;19982;-85
2021/12/26 13:06:33;;;;;;;;;;;;;;;3.95;nan;99570.31;5051075;28;20378;-85
2021/12/26 13:08:59;;;;;;;;;;;;;;;3.91;nan;99564.53;5051847;28;19924;-85
2021/12/26 13:11:25;;;;;;;;;;;;;;;3.90;nan;99560.25;5049732;28;19943;-85
2021/12/26 13:13:53;;;;;;;;;;;;;;;3.89;nan;99560.41;5048333;28;19963;-85
2021/12/26 13:16:18;;;;;;;;;;;;;;;3.79;nan;99560.34;5030351;28;19967;-85
2021/12/26 13:18:43;;;;;;;;;;;;;;;3.76;nan;99563.22;5002200;28;19917;-85